Time;durP1;ratioP1;P1;durP2;ratioP2;P2;SDS_P1;SDS_P2;PMS_P1;PMS_P2;Temp;Humidity;BMP_temperature;BMP_pressure;BME280_temperature;BME280_humidity;BME280_pressure;Samples;Min_cycle;Max_cycle;Signal;HPM_P1;HPM_P2
2021/12/27 00:03:44;;;;;;;99.70;41.40;;;;;;;-5.26;60.89;98975.92;219389;1293;140054;-58
2021/12/27 00:08:50;;;;;;;89.90;39.70;;;;;;;-5.30;60.99;98973.34;218926;1293;140097;-58
2021/12/27 00:13:53;;;;;;;100.90;41.90;;;;;;;-5.32;61.08;98975.75;219140;1290;139113;-59
2021/12/27 00:18:55;;;;;;;91.80;38.80;;;;;;;-5.31;61.13;98969.17;219877;1293;140221;-57
2021/12/27 00:23:58;;;;;;;92.80;38.20;;;;;;;-5.31;61.18;98968.48;218663;1293;139148;-55
2021/12/27 00:29:02;;;;;;;86.50;38.30;;;;;;;-5.34;60.96;98957.95;218901;1293;139649;-57
2021/12/27 00:34:04;;;;;;;80.90;36.40;;;;;;;-5.37;61.02;98967.27;219609;1290;141311;-56
2021/12/27 00:39:08;;;;;;;83.90;36.60;;;;;;;-5.40;61.14;98966.77;219085;1290;139931;-59
2021/12/27 00:44:11;;;;;;;82.90;35.60;;;;;;;-5.37;61.20;98969.69;218968;1293;139146;-57
2021/12/27 00:49:14;;;;;;;79.50;36.40;;;;;;;-5.36;61.32;98971.77;219517;1293;139587;-56
2021/12/27 00:54:17;;;;;;;88.40;37.00;;;;;;;-5.35;61.14;98971.42;218930;1293;139028;-57
2021/12/27 00:59:21;;;;;;;93.10;39.70;;;;;;;-5.38;61.23;98971.60;218830;1293;139700;-57
2021/12/27 01:04:24;;;;;;;90.20;37.40;;;;;;;-5.39;61.20;98966.06;219095;1293;139858;-56
2021/12/27 01:10:31;;;;;;;84.90;38.20;;;;;;;-5.42;61.07;98965.20;219180;1293;140211;-57
2021/12/27 01:20:35;;;;;;;89.70;39.80;;;;;;;-5.47;61.23;98963.13;218290;1293;140502;-57
2021/12/27 01:25:38;;;;;;;102.20;41.20;;;;;;;-5.48;61.00;98965.36;219450;1290;139328;-57
2021/12/27 01:30:47;;;;;;;101.30;41.70;;;;;;;-5.51;61.13;98963.98;218867;1293;138974;-56
2021/12/27 01:35:51;;;;;;;99.80;44.60;;;;;;;-5.53;61.14;98965.70;218770;1293;140330;-56
2021/12/27 01:40:56;;;;;;;98.90;44.30;;;;;;;-5.56;61.16;98960.17;219387;1293;139430;-58
2021/12/27 01:46:03;;;;;;;93.00;42.20;;;;;;;-5.63;61.05;98961.20;218723;1293;139044;-56
2021/12/27 01:51:09;;;;;;;104.80;45.70;;;;;;;-5.66;61.03;98966.21;219240;1293;139477;-56
2021/12/27 01:56:15;;;;;;;106.50;45.00;;;;;;;-5.70;60.94;98962.92;218612;1293;139251;-57
2021/12/27 02:01:19;;;;;;;105.00;45.60;;;;;;;-5.76;60.80;98963.60;219606;1293;140344;-58
2021/12/27 02:06:25;;;;;;;114.00;46.40;;;;;;;-5.84;60.76;98959.09;218759;1293;140065;-56
2021/12/27 02:11:33;;;;;;;104.10;46.50;;;;;;;-5.88;60.91;98958.21;218240;1296;139389;-57
2021/12/27 02:16:37;;;;;;;123.30;51.60;;;;;;;-5.90;60.88;98954.94;218905;1292;139919;-57
2021/12/27 02:21:40;;;;;;;126.20;52.60;;;;;;;-5.95;60.94;98947.01;218042;1294;140465;-53
2021/12/27 02:26:43;;;;;;;124.80;51.50;;;;;;;-5.94;61.01;98943.73;218845;1293;140604;-56
2021/12/27 02:31:50;;;;;;;132.40;54.10;;;;;;;-5.88;60.64;98942.33;218935;1293;161463;-59
2021/12/27 02:36:53;;;;;;;125.50;55.40;;;;;;;-5.83;60.88;98937.15;219049;1290;139678;-59
2021/12/27 02:41:56;;;;;;;134.80;54.20;;;;;;;-5.84;60.73;98933.35;218629;1290;139727;-57
2021/12/27 02:47:00;;;;;;;123.10;52.60;;;;;;;-5.86;60.62;98927.64;218923;1293;139606;-57
2021/12/27 02:52:03;;;;;;;123.60;53.30;;;;;;;-5.93;60.64;98931.97;218330;1296;139366;-60
2021/12/27 02:57:08;;;;;;;125.80;53.30;;;;;;;-6.02;60.49;98936.45;219049;1293;139877;-59
2021/12/27 03:02:11;;;;;;;121.50;51.50;;;;;;;-6.05;60.75;98941.29;218918;1293;139499;-57
2021/12/27 03:07:14;;;;;;;109.20;47.60;;;;;;;-6.09;60.45;98942.65;219857;1293;140345;-58
2021/12/27 03:12:17;;;;;;;114.10;49.30;;;;;;;-6.17;60.75;98943.14;218823;1294;139388;-58
2021/12/27 03:17:20;;;;;;;120.20;49.70;;;;;;;-6.27;60.70;98946.39;218675;1293;139695;-57
2021/12/27 03:22:23;;;;;;;121.10;49.90;;;;;;;-6.35;60.62;98945.84;219291;1293;139017;-56
2021/12/27 03:27:26;;;;;;;133.90;54.40;;;;;;;-6.44;60.55;98942.52;219420;1293;141355;-57
2021/12/27 03:32:31;;;;;;;120.70;49.70;;;;;;;-6.49;60.66;98940.61;218988;1293;139613;-58
2021/12/27 03:37:35;;;;;;;120.80;51.00;;;;;;;-6.47;60.58;98940.27;219375;1293;142191;-57
2021/12/27 03:42:38;;;;;;;107.10;43.10;;;;;;;-6.49;60.67;98949.92;218473;1295;140079;-59
2021/12/27 03:47:41;;;;;;;88.20;38.10;;;;;;;-6.50;60.70;98962.34;219201;1293;139567;-58
2021/12/27 03:52:45;;;;;;;77.70;32.40;;;;;;;-6.39;61.12;98959.98;218671;1294;139970;-57
2021/12/27 03:57:53;;;;;;;68.80;30.30;;;;;;;-6.35;61.18;98960.16;218369;1293;139562;-56
2021/12/27 04:02:59;;;;;;;64.10;28.70;;;;;;;-6.43;61.15;98957.36;218810;1293;139786;-59
2021/12/27 04:08:09;;;;;;;213.00;120.50;;;;;;;-6.44;61.35;98960.46;218703;1292;138969;-59
2021/12/27 04:13:13;;;;;;;61.00;27.90;;;;;;;-6.41;61.85;98957.55;218768;1293;139561;-59
2021/12/27 04:18:16;;;;;;;46.10;21.40;;;;;;;-6.35;61.72;98958.61;218419;1295;139189;-60
2021/12/27 04:23:19;;;;;;;50.80;21.70;;;;;;;-6.42;61.62;98952.71;219186;1293;139767;-59
2021/12/27 04:28:24;;;;;;;389.50;195.30;;;;;;;-6.47;61.71;98940.80;219168;1292;139482;-59
2021/12/27 04:33:27;;;;;;;55.30;24.30;;;;;;;-6.26;62.83;98943.46;219468;1292;140676;-58
2021/12/27 04:38:30;;;;;;;54.10;22.80;;;;;;;-6.08;62.52;98944.55;219066;1290;139903;-57
2021/12/27 04:43:33;;;;;;;47.40;22.60;;;;;;;-6.01;62.19;98942.67;219296;1293;140067;-58
2021/12/27 04:48:36;;;;;;;46.60;21.30;;;;;;;-5.91;62.47;98941.30;219721;1293;140029;-54
2021/12/27 04:53:39;;;;;;;39.80;18.70;;;;;;;-5.82;62.37;98947.52;219292;1292;139312;-61
2021/12/27 04:58:44;;;;;;;107.60;53.90;;;;;;;-5.83;62.65;98945.45;218655;1295;138869;-58
2021/12/27 05:03:48;;;;;;;48.20;21.50;;;;;;;-5.70;62.95;98943.39;217942;1296;140037;-57
2021/12/27 05:08:53;;;;;;;49.10;19.20;;;;;;;-5.66;62.82;98946.85;218751;1294;139455;-55
2021/12/27 05:13:56;;;;;;;42.70;18.60;;;;;;;-5.72;62.59;98948.41;218412;1293;139545;-56
2021/12/27 05:18:59;;;;;;;51.90;20.80;;;;;;;-5.77;62.83;98949.95;218953;1293;139179;-57
2021/12/27 05:24:02;;;;;;;42.50;19.30;;;;;;;-5.78;63.05;98949.09;218741;1291;139001;-58
2021/12/27 05:29:06;;;;;;;44.00;17.40;;;;;;;-5.90;62.60;98949.75;219611;1293;139196;-60
2021/12/27 05:34:10;;;;;;;49.40;21.20;;;;;;;-5.93;63.01;98954.27;218905;1293;140297;-58
2021/12/27 05:39:19;;;;;;;51.40;20.70;;;;;;;-5.90;63.11;98946.29;219160;1293;140124;-57
2021/12/27 05:44:22;;;;;;;47.80;19.90;;;;;;;-5.84;63.39;98932.31;218728;1293;140961;-58
2021/12/27 05:49:25;;;;;;;51.70;22.30;;;;;;;-5.74;63.46;98932.67;218726;1294;140341;-57
2021/12/27 05:54:29;;;;;;;54.30;20.80;;;;;;;-5.62;63.72;98927.52;218799;1293;140126;-59
2021/12/27 05:59:32;;;;;;;49.00;20.00;;;;;;;-5.48;63.57;98924.92;219754;1293;138915;-60
2021/12/27 06:04:35;;;;;;;50.40;21.50;;;;;;;-5.49;63.45;98930.29;219153;1293;139702;-57
2021/12/27 06:09:38;;;;;;;46.60;20.70;;;;;;;-5.37;63.66;98932.53;219828;1291;139320;-58
2021/12/27 06:14:41;;;;;;;42.90;19.70;;;;;;;-5.29;63.55;98931.31;218263;1296;140464;-57
2021/12/27 06:19:43;;;;;;;43.00;19.60;;;;;;;-5.34;63.25;98929.24;218369;1295;140022;-56
2021/12/27 06:24:46;;;;;;;40.10;18.00;;;;;;;-5.40;63.41;98929.77;218914;1293;139104;-56
2021/12/27 06:29:49;;;;;;;44.60;19.40;;;;;;;-5.49;63.25;98933.05;218667;1293;139471;-59
2021/12/27 06:34:53;;;;;;;39.10;18.30;;;;;;;-5.55;63.47;98933.91;219396;1290;139636;-59
2021/12/27 06:39:57;;;;;;;46.20;20.00;;;;;;;-5.58;63.60;98924.58;219076;1293;139027;-58
2021/12/27 06:45:01;;;;;;;39.30;15.20;;;;;;;-5.62;63.63;98917.13;219048;1294;139436;-60
2021/12/27 06:50:05;;;;;;;34.50;15.80;;;;;;;-5.66;63.84;98917.84;218871;1294;139855;-59
2021/12/27 06:55:10;;;;;;;35.40;15.40;;;;;;;-5.65;64.13;98912.80;218970;1293;138978;-56
2021/12/27 07:00:14;;;;;;;40.60;17.60;;;;;;;-5.61;64.07;98916.11;219267;1293;140447;-57
2021/12/27 07:05:17;;;;;;;47.40;19.30;;;;;;;-5.51;64.35;98915.77;220173;1293;139581;-56
2021/12/27 07:10:22;;;;;;;36.60;16.10;;;;;;;-5.40;64.39;98923.02;218836;1293;139253;-57
2021/12/27 07:15:25;;;;;;;37.60;17.20;;;;;;;-5.34;64.11;98914.72;218441;1293;139271;-58
2021/12/27 07:20:28;;;;;;;53.40;21.90;;;;;;;-5.27;64.38;98916.61;218788;1293;139695;-55
2021/12/27 07:25:31;;;;;;;47.90;20.00;;;;;;;-5.24;64.33;98904.69;218813;1293;139464;-56
2021/12/27 07:30:34;;;;;;;52.60;22.10;;;;;;;-5.20;64.23;98894.48;220067;1292;139830;-58
2021/12/27 07:35:38;;;;;;;52.40;22.70;;;;;;;-5.11;64.34;98895.34;218934;1291;180553;-60
2021/12/27 07:40:41;;;;;;;61.00;25.10;;;;;;;-5.09;64.20;98893.42;218909;1293;139253;-59
2021/12/27 07:45:44;;;;;;;58.20;22.00;;;;;;;-5.06;64.40;98896.88;219454;1292;140604;-58
2021/12/27 07:50:47;;;;;;;71.20;28.00;;;;;;;-5.02;64.78;98894.61;218550;1293;139913;-58
2021/12/27 07:55:50;;;;;;;65.90;28.40;;;;;;;-4.85;64.73;98885.23;219711;1292;140963;-62
2021/12/27 08:00:54;;;;;;;69.80;27.50;;;;;;;-4.79;64.38;98882.96;218996;1293;140604;-61
2021/12/27 08:05:57;;;;;;;63.60;27.80;;;;;;;-4.73;64.37;98882.80;219170;1293;139430;-57
2021/12/27 08:11:00;;;;;;;61.40;26.90;;;;;;;-4.72;64.21;98878.45;218421;1293;139654;-62
2021/12/27 08:16:03;;;;;;;67.70;28.60;;;;;;;-4.71;64.18;98874.31;219035;1293;140321;-61
2021/12/27 08:21:07;;;;;;;65.80;28.30;;;;;;;-4.67;64.16;98871.69;219063;1293;139482;-59
2021/12/27 08:26:10;;;;;;;69.80;28.40;;;;;;;-4.73;64.05;98876.03;219435;1293;139969;-56
2021/12/27 08:31:14;;;;;;;351.20;176.00;;;;;;;-4.77;64.08;98872.06;219473;1290;140097;-57
2021/12/27 08:36:17;;;;;;;74.20;31.40;;;;;;;-4.65;64.82;98867.18;219045;1292;139458;-57
2021/12/27 08:41:20;;;;;;;64.40;27.10;;;;;;;-4.63;64.36;98859.20;219725;1293;139274;-58
2021/12/27 08:46:23;;;;;;;63.60;26.00;;;;;;;-4.69;64.04;98856.45;219008;1293;139132;-57
2021/12/27 08:51:26;;;;;;;55.60;24.60;;;;;;;-4.72;64.16;98854.40;219355;1293;139855;-56
2021/12/27 08:56:30;;;;;;;64.40;27.00;;;;;;;-4.72;64.17;98852.84;218585;1293;139440;-58
2021/12/27 09:01:33;;;;;;;55.30;23.70;;;;;;;-4.73;64.16;98844.37;219435;1292;140376;-55
2021/12/27 09:06:37;;;;;;;54.90;24.30;;;;;;;-4.72;64.18;98855.45;218695;1292;139383;-59
2021/12/27 09:11:40;;;;;;;61.30;25.70;;;;;;;-4.72;64.22;98844.71;218994;1293;140020;-54
2021/12/27 09:16:44;;;;;;;63.50;25.90;;;;;;;-4.69;64.45;98837.77;219190;1293;140255;-60
2021/12/27 09:21:47;;;;;;;62.30;26.20;;;;;;;-4.64;64.48;98835.67;218906;1292;139860;-59
2021/12/27 09:26:50;;;;;;;60.00;24.40;;;;;;;-4.65;64.35;98834.98;218639;1293;140118;-57
2021/12/27 09:31:54;;;;;;;64.90;26.30;;;;;;;-4.69;64.24;98831.54;219347;1293;139857;-60
2021/12/27 09:36:57;;;;;;;54.80;24.90;;;;;;;-4.69;64.40;98825.83;219428;1293;139974;-57
2021/12/27 09:42:01;;;;;;;64.70;26.80;;;;;;;-4.63;64.46;98815.60;218633;1291;138708;-58
2021/12/27 09:47:04;;;;;;;56.80;24.90;;;;;;;-4.53;64.60;98802.20;219097;1293;139617;-58
2021/12/27 09:52:07;;;;;;;59.10;26.70;;;;;;;-4.41;64.59;98799.37;219543;1290;140167;-60
2021/12/27 09:57:10;;;;;;;61.70;26.50;;;;;;;-4.28;64.70;98795.84;219316;1293;139772;-58
2021/12/27 10:02:13;;;;;;;62.70;27.90;;;;;;;-4.21;64.60;98797.69;219489;1290;139488;-60
2021/12/27 10:07:23;;;;;;;61.40;26.40;;;;;;;-4.23;64.29;98794.77;219503;1293;140618;-56
2021/12/27 10:12:30;;;;;;;64.00;27.40;;;;;;;-4.31;64.36;98796.73;219188;1290;140221;-59
2021/12/27 10:17:35;;;;;;;68.50;26.90;;;;;;;-4.42;64.30;98799.38;218865;1293;139479;-58
2021/12/27 10:22:40;;;;;;;60.50;27.10;;;;;;;-4.46;64.48;98790.23;219258;1293;139729;-58
2021/12/27 10:27:44;;;;;;;69.20;27.70;;;;;;;-4.52;64.37;98794.77;219294;1290;141413;-59
2021/12/27 10:33:13;;;;;;;64.70;27.40;;;;;;;-4.61;64.43;98794.46;219151;1291;140776;-58
2021/12/27 10:38:18;;;;;;;58.70;25.60;;;;;;;-4.66;64.50;98788.27;219237;1290;139757;-58
2021/12/27 10:43:35;;;;;;;66.70;27.50;;;;;;;-4.67;64.75;98780.65;219058;1290;139487;-62
2021/12/27 10:48:46;;;;;;;84.80;34.50;;;;;;;-4.59;65.12;98771.96;219399;1293;139352;-59
2021/12/27 10:53:59;;;;;;;75.60;30.70;;;;;;;-4.42;65.27;98768.23;218939;1293;139579;-61
2021/12/27 10:59:02;;;;;;;74.70;29.00;;;;;;;-4.36;64.93;98758.48;219177;1293;139676;-59
2021/12/27 11:04:05;;;;;;;74.60;30.70;;;;;;;-4.31;64.74;98747.02;219698;1293;139869;-58
2021/12/27 11:09:09;;;;;;;71.80;29.50;;;;;;;-4.31;64.78;98739.59;219355;1292;208551;-58
2021/12/27 11:14:12;;;;;;;68.30;29.90;;;;;;;-4.32;64.64;98734.21;219096;1291;139116;-58
2021/12/27 11:19:16;;;;;;;79.10;30.50;;;;;;;-4.31;64.72;98726.76;219289;1293;141787;-55
2021/12/27 11:24:19;;;;;;;68.00;29.40;;;;;;;-4.30;64.66;98724.51;218919;1294;139411;-57
2021/12/27 11:29:23;;;;;;;75.00;32.20;;;;;;;-4.31;64.67;98721.21;219873;1293;141265;-58
2021/12/27 11:34:26;;;;;;;69.40;30.40;;;;;;;-4.29;64.87;98722.41;220036;1292;140078;-58
2021/12/27 11:39:35;;;;;;;73.20;30.70;;;;;;;-4.27;64.72;98716.52;219158;1293;140590;-56
2021/12/27 11:44:53;;;;;;;75.30;29.90;;;;;;;-4.31;64.80;98702.17;218759;1294;139249;-59
2021/12/27 11:50:01;;;;;;;78.20;32.00;;;;;;;-4.27;64.87;98703.35;219447;1291;139213;-56
2021/12/27 11:55:11;;;;;;;72.90;30.90;;;;;;;-4.26;64.79;98709.23;219183;1292;139241;-59
2021/12/27 12:00:17;;;;;;;79.10;34.30;;;;;;;-4.14;65.80;98701.86;218970;1293;139214;-57
2021/12/27 12:05:42;;;;;;;77.50;32.60;;;;;;;-4.01;65.14;98706.08;218951;1293;142024;-62
2021/12/27 12:10:57;;;;;;;75.00;31.80;;;;;;;-3.99;64.79;98709.17;218439;1293;140233;-57
2021/12/27 12:16:10;;;;;;;84.20;34.50;;;;;;;-3.96;64.82;98701.53;218374;1302;139089;-58
2021/12/27 12:21:28;;;;;;;81.00;34.30;;;;;;;-3.93;64.91;98689.71;219225;1293;139235;-59
2021/12/27 12:26:57;;;;;;;83.20;34.00;;;;;;;-3.84;64.84;98680.09;219729;1294;139492;-56
2021/12/27 12:32:05;;;;;;;72.60;32.50;;;;;;;-3.85;64.73;98684.61;219300;1294;139976;-58
2021/12/27 12:37:11;;;;;;;70.80;31.40;;;;;;;-3.87;64.70;98681.00;219009;1293;139625;-57
2021/12/27 12:42:23;;;;;;;76.20;31.90;;;;;;;-3.86;64.68;98675.44;218508;1294;139144;-59
2021/12/27 12:47:34;;;;;;;69.90;30.40;;;;;;;-3.86;64.64;98674.55;218949;1294;139656;-57
2021/12/27 12:52:47;;;;;;;76.80;30.80;;;;;;;-3.91;64.43;98672.88;218857;1293;139367;-56
2021/12/27 12:57:55;;;;;;;73.60;32.40;;;;;;;-3.92;64.55;98675.50;219475;1294;139272;-57
2021/12/27 13:03:13;;;;;;;72.10;30.90;;;;;;;-3.92;64.53;98671.52;218831;1293;139925;-55
2021/12/27 13:08:16;;;;;;;183.00;79.80;;;;;;;-2.69;72.58;98663.64;219081;1293;139947;-61
2021/12/27 13:13:19;;;;;;;93.10;42.50;;;;;;;3.50;85.83;98633.47;219661;1294;140007;-55
2021/12/27 13:18:25;;;;;;;75.30;33.90;;;;;;;5.73;76.56;98611.63;218545;1294;139885;-57
2021/12/27 13:23:32;;;;;;;75.80;35.10;;;;;;;4.93;65.08;98613.64;218717;1293;139890;-55
2021/12/27 13:28:42;;;;;;;76.60;34.50;;;;;;;3.17;60.60;98620.06;218893;1293;139452;-58
2021/12/27 13:33:50;;;;;;;73.80;36.30;;;;;;;1.49;59.37;98633.91;218970;1293;139078;-57
2021/12/27 13:39:08;;;;;;;82.00;37.80;;;;;;;0.13;59.48;98638.91;218808;1293;139250;-57
2021/12/27 13:44:12;;;;;;;80.50;34.70;;;;;;;-0.79;60.15;98648.17;219502;1293;138828;-56
2021/12/27 13:49:15;;;;;;;72.70;33.80;;;;;;;-1.44;60.70;98653.55;218860;1293;140612;-58
2021/12/27 13:54:19;;;;;;;70.90;32.50;;;;;;;-1.92;60.84;98654.82;218511;1293;139118;-56
2021/12/27 13:59:22;;;;;;;75.50;33.80;;;;;;;-2.42;61.17;98651.52;218880;1293;139978;-56
2021/12/27 14:04:26;;;;;;;74.80;34.00;;;;;;;-2.80;61.56;98655.91;219485;1293;139311;-59
2021/12/27 14:09:32;;;;;;;73.40;33.40;;;;;;;-3.07;61.85;98659.41;218831;1293;139722;-61
2021/12/27 14:14:39;;;;;;;76.10;33.70;;;;;;;-3.25;62.39;98653.41;218757;1288;139730;-60
2021/12/27 14:19:48;;;;;;;77.50;32.60;;;;;;;-3.38;62.50;98659.30;218839;1294;139691;-61
2021/12/27 14:24:56;;;;;;;74.20;34.80;;;;;;;-3.55;62.54;98660.18;218543;1293;139261;-60
2021/12/27 14:30:08;;;;;;;74.00;33.20;;;;;;;-3.65;62.90;98662.20;219082;1293;139139;-60
2021/12/27 14:35:29;;;;;;;77.20;33.90;;;;;;;-3.66;63.17;98667.44;219514;1293;139394;-58
2021/12/27 14:40:35;;;;;;;78.10;34.80;;;;;;;-3.70;63.41;98667.46;218736;1293;139025;-60
2021/12/27 14:45:40;;;;;;;81.00;34.10;;;;;;;-3.75;63.38;98673.75;218591;1293;142525;-57
2021/12/27 14:50:46;;;;;;;84.40;37.00;;;;;;;-3.85;63.38;98681.14;218980;1293;140303;-63
2021/12/27 14:55:49;;;;;;;81.20;33.00;;;;;;;-3.87;63.71;98677.02;219025;1293;139507;-59
2021/12/27 15:00:56;;;;;;;86.80;34.50;;;;;;;-3.96;63.59;98681.25;218756;1293;139582;-61
2021/12/27 15:06:00;;;;;;;77.30;32.80;;;;;;;-3.99;63.67;98679.54;220167;1293;139537;-58
2021/12/27 15:11:04;;;;;;;78.60;34.20;;;;;;;-4.02;63.72;98684.44;218774;1293;140004;-57
2021/12/27 15:16:06;;;;;;;89.70;34.50;;;;;;;-4.02;63.94;98689.45;220108;1293;139197;-57
2021/12/27 15:21:10;;;;;;;77.70;33.90;;;;;;;-4.08;63.86;98690.70;219159;1293;139351;-55
2021/12/27 15:26:14;;;;;;;81.70;34.30;;;;;;;-4.09;64.13;98695.06;218935;1293;140454;-56
2021/12/27 15:31:17;;;;;;;84.80;36.10;;;;;;;-4.07;64.20;98693.65;219163;1293;140182;-58
2021/12/27 15:36:20;;;;;;;76.70;35.20;;;;;;;-4.01;64.20;98697.41;219070;1292;139761;-57
2021/12/27 15:41:23;;;;;;;81.20;35.70;;;;;;;-3.94;64.12;98694.23;219094;1294;139565;-54
2021/12/27 15:46:27;;;;;;;74.10;33.80;;;;;;;-3.89;64.02;98689.50;219435;1293;139596;-63
2021/12/27 15:51:30;;;;;;;81.00;35.20;;;;;;;-3.89;64.07;98688.13;218449;1294;139137;-59
2021/12/27 15:56:34;;;;;;;77.20;34.20;;;;;;;-3.85;64.15;98694.48;218839;1293;139504;-59
2021/12/27 16:01:38;;;;;;;78.40;35.00;;;;;;;-3.85;64.06;98694.13;218452;1294;138816;-60
2021/12/27 16:06:42;;;;;;;70.10;33.20;;;;;;;-3.81;64.27;98695.66;218470;1293;140017;-61
2021/12/27 16:11:45;;;;;;;247.20;120.10;;;;;;;-3.79;64.43;98701.53;219036;1293;139191;-57
2021/12/27 16:16:48;;;;;;;80.50;37.10;;;;;;;-3.62;64.96;98694.94;218594;1294;139513;-60
2021/12/27 16:21:51;;;;;;;82.50;35.70;;;;;;;-3.60;64.47;98686.26;218894;1293;140291;-55
2021/12/27 16:26:54;;;;;;;81.60;37.50;;;;;;;-3.71;64.07;98692.97;218227;1294;139948;-59
2021/12/27 16:31:57;;;;;;;73.30;34.70;;;;;;;-3.77;64.18;98687.14;218312;1296;139263;-59
2021/12/27 16:37:00;;;;;;;86.90;35.90;;;;;;;-3.84;64.18;98688.06;219215;1292;138866;-58
2021/12/27 16:42:04;;;;;;;81.30;36.00;;;;;;;-3.87;64.32;98688.10;220449;1293;139947;-59
2021/12/27 16:47:09;;;;;;;86.50;37.50;;;;;;;-3.90;64.31;98689.16;219446;1293;138958;-58
2021/12/27 16:52:13;;;;;;;79.20;36.50;;;;;;;-3.91;64.42;98694.71;220417;1292;140157;-56
2021/12/27 16:57:16;;;;;;;79.70;38.30;;;;;;;-3.86;64.71;98698.66;220135;1292;139069;-60
2021/12/27 17:02:19;;;;;;;82.60;37.70;;;;;;;-3.79;64.73;98699.63;221095;1293;139584;-58
2021/12/27 17:07:22;;;;;;;86.80;38.20;;;;;;;-3.79;64.59;98698.77;218885;1293;139205;-56
2021/12/27 17:12:25;;;;;;;84.50;37.40;;;;;;;-3.80;64.55;98699.99;218908;1293;139821;-55
2021/12/27 17:17:28;;;;;;;92.70;41.00;;;;;;;-3.81;64.56;98695.30;218801;1293;140079;-57
2021/12/27 17:22:31;;;;;;;80.30;38.50;;;;;;;-3.75;64.71;98694.56;218566;1293;141116;-58
2021/12/27 17:27:35;;;;;;;85.50;38.20;;;;;;;-3.60;64.98;98689.36;218526;1294;139355;-59
2021/12/27 17:32:38;;;;;;;83.90;38.00;;;;;;;-3.44;64.83;98687.98;219363;1293;139232;-60
2021/12/27 17:37:41;;;;;;;87.10;41.40;;;;;;;-3.40;64.73;98685.16;218507;1294;139756;-56
2021/12/27 17:42:45;;;;;;;78.60;37.30;;;;;;;-3.43;64.63;98676.52;218343;1294;139089;-58
2021/12/27 17:47:50;;;;;;;83.80;38.80;;;;;;;-3.48;64.63;98677.27;219239;1290;139773;-59
2021/12/27 17:52:53;;;;;;;87.40;40.90;;;;;;;-3.39;65.28;98677.85;218661;1296;139722;-60
2021/12/27 17:57:56;;;;;;;82.80;39.20;;;;;;;-3.31;64.99;98682.80;218630;1293;140403;-58
2021/12/27 18:03:00;;;;;;;86.90;40.70;;;;;;;-3.33;64.80;98677.45;218854;1293;139067;-62
2021/12/27 18:08:04;;;;;;;91.90;41.20;;;;;;;-3.35;64.69;98680.41;218470;1294;139351;-57
2021/12/27 18:13:11;;;;;;;85.90;37.80;;;;;;;-3.39;64.51;98679.77;218843;1296;139719;-58
2021/12/27 18:18:14;;;;;;;83.40;38.00;;;;;;;-3.47;64.57;98677.45;219404;1294;139759;-58
2021/12/27 18:23:18;;;;;;;86.90;39.80;;;;;;;-3.52;64.62;98679.23;219077;1293;139094;-59
2021/12/27 18:28:21;;;;;;;83.60;38.10;;;;;;;-3.47;64.82;98682.13;219276;1293;140745;-57
2021/12/27 18:33:24;;;;;;;83.50;38.20;;;;;;;-3.46;64.76;98680.04;218397;1294;139629;-60
2021/12/27 18:38:27;;;;;;;79.50;38.10;;;;;;;-3.48;64.64;98675.55;218815;1293;139808;-61
2021/12/27 18:43:31;;;;;;;330.00;170.60;;;;;;;-3.47;64.73;98666.70;219363;1292;139406;-60
2021/12/27 18:48:34;;;;;;;88.20;40.10;;;;;;;-3.17;66.32;98667.53;218844;1292;139759;-58
2021/12/27 18:53:37;;;;;;;80.30;36.80;;;;;;;-2.96;65.45;98666.91;218417;1293;140260;-61
2021/12/27 18:58:43;;;;;;;79.30;39.40;;;;;;;-2.91;65.03;98667.36;219205;1292;140556;-58
2021/12/27 19:03:46;;;;;;;75.40;37.30;;;;;;;-2.86;64.96;98672.13;219115;1293;140008;-61
2021/12/27 19:08:50;;;;;;;77.20;37.80;;;;;;;-2.86;64.79;98666.77;219598;1292;139655;-58
2021/12/27 19:13:53;;;;;;;77.70;38.40;;;;;;;-2.84;64.84;98662.05;218927;1293;139207;-58
2021/12/27 19:18:56;;;;;;;82.80;39.40;;;;;;;-2.95;64.53;98664.11;219315;1293;139211;-60
2021/12/27 19:23:59;;;;;;;76.70;37.60;;;;;;;-3.04;64.53;98661.64;219032;1293;139216;-58
2021/12/27 19:29:02;;;;;;;83.90;37.70;;;;;;;-3.07;64.65;98660.46;219554;1290;139553;-59
2021/12/27 19:34:05;;;;;;;76.70;36.90;;;;;;;-3.05;64.70;98665.14;219817;1293;139672;-59
2021/12/27 19:39:11;;;;;;;80.60;43.20;;;;;;;-3.14;64.54;98661.58;219037;1293;139233;-59
2021/12/27 19:44:14;;;;;;;;;;;;;;;-3.00;65.93;98659.49;218966;1292;139732;-60
2021/12/27 19:49:17;;;;;;;78.80;37.80;;;;;;;-2.78;65.27;98664.05;219140;1293;126666;-57
2021/12/27 19:54:23;;;;;;;79.00;38.80;;;;;;;-2.80;64.76;98666.84;219363;1293;139285;-59
2021/12/27 19:59:33;;;;;;;74.20;36.70;;;;;;;-2.84;64.58;98672.45;219535;1293;139110;-60
2021/12/27 20:04:37;;;;;;;71.10;34.70;;;;;;;-2.86;64.53;98672.85;219254;1292;139062;-59
2021/12/27 20:09:40;;;;;;;70.60;35.40;;;;;;;-2.92;64.56;98664.60;219024;1292;139521;-56
2021/12/27 20:14:44;;;;;;;71.30;34.80;;;;;;;-2.93;64.63;98663.55;218918;1293;139024;-57
2021/12/27 20:19:48;;;;;;;71.10;32.80;;;;;;;-2.96;64.53;98660.84;219319;1290;139661;-56
2021/12/27 20:24:53;;;;;;;70.30;34.10;;;;;;;-2.98;64.72;98661.38;219232;1292;138827;-60
2021/12/27 20:29:56;;;;;;;49.80;23.50;;;;;;;-2.98;64.57;98653.73;218973;1292;140174;-56
2021/12/27 20:34:59;;;;;;;61.00;31.20;;;;;;;-3.03;64.55;98656.23;218558;1293;139149;-57
2021/12/27 20:40:03;;;;;;;62.00;30.90;;;;;;;-3.04;64.64;98658.35;220008;1290;140813;-59
2021/12/27 20:45:12;;;;;;;61.50;29.70;;;;;;;-3.01;64.76;98651.53;219299;1291;139528;-58
2021/12/27 20:50:19;;;;;;;52.40;28.00;;;;;;;-2.99;64.88;98654.80;219078;1293;139961;-58
2021/12/27 20:55:22;;;;;;;53.40;27.50;;;;;;;-2.97;64.97;98657.20;219375;1290;139742;-54
2021/12/27 21:00:30;;;;;;;54.10;28.00;;;;;;;-2.96;65.00;98655.45;218714;1293;139725;-56
2021/12/27 21:05:34;;;;;;;55.60;28.40;;;;;;;-2.96;65.00;98653.88;219354;1291;139333;-60
2021/12/27 21:10:41;;;;;;;55.40;27.40;;;;;;;-2.93;65.10;98646.20;218765;1293;139582;-59
2021/12/27 21:15:45;;;;;;;50.40;25.50;;;;;;;-2.90;65.10;98637.66;219066;1293;139937;-57
2021/12/27 21:21:03;;;;;;;56.30;27.30;;;;;;;-2.91;65.17;98633.17;218663;1293;139509;-59
2021/12/27 21:26:06;;;;;;;54.90;27.00;;;;;;;-2.81;65.29;98636.14;218767;1293;140520;-58
2021/12/27 21:31:09;;;;;;;56.40;28.60;;;;;;;-2.72;65.27;98638.27;218963;1293;139701;-60
2021/12/27 21:36:13;;;;;;;59.30;28.20;;;;;;;-2.63;65.36;98633.61;218839;1293;139521;-59
2021/12/27 21:41:17;;;;;;;53.90;27.90;;;;;;;-2.54;65.43;98636.77;219320;1293;141165;-55
2021/12/27 21:46:20;;;;;;;61.50;28.70;;;;;;;-2.48;65.38;98636.48;218924;1293;139039;-59
2021/12/27 21:51:24;;;;;;;55.50;27.90;;;;;;;-2.47;65.24;98635.27;219240;1293;140113;-55
2021/12/27 21:56:26;;;;;;;60.40;29.40;;;;;;;-2.47;65.33;98629.71;219279;1293;140335;-57
2021/12/27 22:01:29;;;;;;;60.40;28.30;;;;;;;-2.48;65.46;98624.69;219565;1293;140037;-55
2021/12/27 22:06:34;;;;;;;56.50;28.00;;;;;;;-2.47;65.54;98618.93;218853;1291;139907;-60
2021/12/27 22:11:37;;;;;;;61.60;28.80;;;;;;;-2.45;65.59;98615.42;219253;1292;140188;-58
2021/12/27 22:17:00;;;;;;;67.60;30.10;;;;;;;-2.41;65.70;98607.02;218523;1293;139006;-56
2021/12/27 22:22:03;;;;;;;327.10;163.00;;;;;;;-2.37;65.80;98612.17;218860;1290;139426;-58
2021/12/27 22:27:07;;;;;;;78.40;37.20;;;;;;;-2.32;65.92;98613.48;219267;1292;139997;-55
2021/12/27 22:32:10;;;;;;;60.70;29.00;;;;;;;-2.31;65.71;98614.86;220267;1292;140179;-57
2021/12/27 22:37:13;;;;;;;58.10;28.80;;;;;;;-2.35;65.74;98611.96;219482;1292;140021;-61
2021/12/27 22:42:18;;;;;;;65.70;29.10;;;;;;;-2.35;65.78;98604.85;219067;1293;139222;-60
2021/12/27 22:47:21;;;;;;;58.60;28.40;;;;;;;-2.35;65.92;98599.29;219326;1293;139411;-60
2021/12/27 22:52:26;;;;;;;63.90;29.50;;;;;;;-2.31;66.13;98598.89;219853;1292;139177;-63
2021/12/27 22:57:29;;;;;;;57.30;28.20;;;;;;;-2.24;65.92;98599.61;219147;1293;139735;-60